Bindloss, Canada
Current Conditions -  °F | °C
As of 12:00 PM on Saturday 20 Dec 2014 (Local Time) from CYXH Reporting Station
Scattered Clouds Scattered Clouds  
Wind Chill: 25°   Ceiling: Unl
Heat Index: 34°   Visibility: 30mi
Dew Point: 27°   Wind: 12mph
Humidity: 75%   Direction: 200°SSW
Pressure: 29.74"   Gusts: NA
Location:  50.88°N, 110.27°W
Report Text: CYXH 201900Z 20010KT 30SM SCT260 01/M03 A2974 RMK CI4 SLP094
Loading
Personal Weather Stations






























Interactive Weather Map New forecast layout! Learn more

10-Day Weather Forecast

Advertisements
Track Severe Weather on mobile